Time;durP1;ratioP1;P1;durP2;ratioP2;P2;SDS_P1;SDS_P2;PMS_P1;PMS_P2;Temp;Humidity;BMP_temperature;BMP_pressure;BME280_temperature;BME280_humidity;BME280_pressure;Samples;Min_cycle;Max_cycle;Signal;HPM_P1;HPM_P2
2023/11/09 09:47:58;;;;;;;1.80;0.97;;;;;;;9.90;83.14;98057.56;5149736;27;20557;-84
2023/11/09 09:50:29;;;;;;;3.57;1.30;;;;;;;10.43;80.12;98077.50;5131638;27;39998;-84
2023/11/09 09:52:59;;;;;;;0.83;0.83;;;;;;;10.67;78.92;98084.56;5114260;27;40979;-77
2023/11/09 09:55:30;;;;;;;1.27;1.17;;;;;;;10.73;78.12;98065.56;5148195;27;42985;-80
2023/11/09 09:58:01;;;;;;;3.77;1.33;;;;;;;10.67;77.79;98026.31;5130837;27;42253;-88
2023/11/09 10:00:47;;;;;;;2.47;1.37;;;;;;;11.02;76.80;98080.06;5131043;27;38673;-85
2023/11/09 10:03:16;;;;;;;1.20;1.07;;;;;;;10.98;75.98;98070.69;5131523;27;42113;-84
2023/11/09 10:05:46;;;;;;;1.33;1.23;;;;;;;10.79;76.80;98046.56;5131108;27;42939;-84
2023/11/09 10:08:15;;;;;;;2.13;1.93;;;;;;;10.93;77.39;98064.88;5130960;27;41366;-84
2023/11/09 10:13:27;;;;;;;1.30;1.20;;;;;;;10.73;78.27;97999.38;5092471;27;40574;-84
2023/11/09 10:16:04;;;;;;;2.23;1.17;;;;;;;11.04;77.45;98056.97;5084036;27;44249;-84
2023/11/09 10:22:10;;;;;;;1.20;0.93;;;;;;;11.15;76.88;98034.94;5087242;28;40254;-84
2023/11/09 10:27:39;;;;;;;1.83;1.13;;;;;;;11.50;75.86;98048.91;5090528;28;42340;-84
2023/11/09 10:44:52;;;;;;;2.30;1.47;;;;;;;12.17;72.26;98032.06;5129890;27;41773;-84
2023/11/09 10:47:40;;;;;;;2.00;1.53;;;;;;;12.35;72.82;98030.56;5125368;27;39590;-84
2023/11/09 10:50:48;;;;;;;1.10;1.00;;;;;;;12.33;72.50;98003.28;5113912;27;41676;-85
2023/11/09 10:53:18;;;;;;;2.00;1.30;;;;;;;12.50;71.93;98017.78;5117021;27;42920;-84
2023/11/09 10:55:47;;;;;;;1.30;1.03;;;;;;;12.57;71.76;98019.81;5116078;27;41879;-85
2023/11/09 10:59:15;;;;;;;0.80;0.80;;;;;;;12.36;70.75;97984.44;5116597;27;39520;-85
2023/11/09 11:02:19;;;;;;;2.37;0.87;;;;;;;12.21;70.89;97969.78;5113299;27;40697;-84
2023/11/09 11:05:28;;;;;;;1.03;0.90;;;;;;;12.34;70.79;97983.72;5099675;27;43770;-84
2023/11/09 11:08:26;;;;;;;1.63;0.90;;;;;;;12.37;70.37;97969.34;5116255;27;41529;-84
2023/11/09 11:11:33;;;;;;;1.47;1.20;;;;;;;12.44;70.54;97978.50;5133277;27;38870;-84
2023/11/09 11:15:01;;;;;;;3.97;0.90;;;;;;;12.72;69.61;97984.97;5117420;27;40623;-84
2023/11/09 11:17:54;;;;;;;0.90;0.90;;;;;;;12.79;69.02;97978.16;5117063;27;42482;-84
2023/11/09 11:21:08;;;;;;;2.03;1.03;;;;;;;12.92;68.33;97981.44;5100030;27;41528;-85
2023/11/09 11:24:05;;;;;;;2.73;1.10;;;;;;;13.16;67.86;97999.78;5116765;27;41144;-85
2023/11/09 11:26:48;;;;;;;0.80;0.80;;;;;;;13.22;66.68;98009.91;5100275;27;41774;-83
2023/11/09 11:29:17;;;;;;;1.10;1.00;;;;;;;13.27;67.80;97995.22;5116788;27;42888;-85
2023/11/09 11:31:46;;;;;;;1.57;1.10;;;;;;;13.22;66.57;97992.13;5134659;27;43166;-82
2023/11/09 11:34:16;;;;;;;1.33;0.93;;;;;;;13.29;65.35;97995.94;5134162;27;40314;-82
2023/11/09 11:39:36;;;;;;;1.50;0.87;;;;;;;13.80;63.14;98005.59;5116102;27;42976;-84
2023/11/09 11:42:36;;;;;;;1.10;0.60;;;;;;;13.78;63.55;98010.22;5099512;27;44142;-86
2023/11/09 11:45:07;;;;;;;0.80;0.80;;;;;;;13.47;63.01;97971.38;5100098;27;38481;-90
2023/11/09 11:47:46;;;;;;;1.87;1.10;;;;;;;13.69;63.40;98010.19;5116538;27;41073;-89
2023/11/09 11:50:35;;;;;;;1.80;1.10;;;;;;;13.68;63.71;97995.22;5115284;27;42908;-87
2023/11/09 11:53:30;;;;;;;1.00;0.90;;;;;;;13.66;63.29;98006.00;5115670;27;41107;-89
2023/11/09 11:55:59;;;;;;;2.13;0.93;;;;;;;13.56;63.53;97976.69;5115833;27;40087;-87
2023/11/09 11:58:55;;;;;;;1.87;1.00;;;;;;;13.61;63.44;97952.34;5131892;27;41654;-89
2023/11/09 12:02:04;;;;;;;0.90;0.90;;;;;;;13.95;63.55;97987.44;5097989;27;42513;-90
2023/11/09 12:04:32;;;;;;;2.43;0.87;;;;;;;13.93;62.16;97979.59;5098554;27;42311;-86
2023/11/09 12:07:25;;;;;;;1.03;0.80;;;;;;;14.12;62.68;97984.06;5125640;27;39027;-83
2023/11/09 12:10:37;;;;;;;1.30;0.87;;;;;;;14.01;62.17;97958.41;5127487;27;42972;-82
2023/11/09 12:13:50;;;;;;;1.03;0.87;;;;;;;14.04;61.85;97954.66;5127242;27;42678;-83
2023/11/09 12:25:58;;;;;;;1.13;0.80;;;;;;;14.14;61.24;97971.47;5111378;27;43035;-83
2023/11/09 12:28:33;;;;;;;1.13;0.80;;;;;;;14.13;61.62;97963.59;5078716;28;41374;-86
2023/11/09 12:31:01;;;;;;;1.23;0.70;;;;;;;13.92;61.63;97932.66;5062366;28;39043;-86
2023/11/09 12:33:34;;;;;;;0.80;0.80;;;;;;;13.97;61.70;97930.38;5077136;28;41898;-87
2023/11/09 12:36:04;;;;;;;1.40;0.90;;;;;;;14.24;61.03;97950.16;5077674;28;41868;-89
2023/11/09 12:38:36;;;;;;;2.27;0.97;;;;;;;14.43;61.48;97955.50;5077390;28;42052;-87
2023/11/09 12:41:06;;;;;;;1.57;1.10;;;;;;;14.44;59.96;97946.53;5077495;28;39804;-90
2023/11/09 12:43:40;;;;;;;3.20;1.30;;;;;;;14.47;60.26;97943.56;5077617;28;40214;-86
2023/11/09 12:46:25;;;;;;;1.70;1.07;;;;;;;14.34;60.58;97925.19;5077458;28;42058;-89
2023/11/09 12:48:56;;;;;;;2.03;1.03;;;;;;;14.52;60.81;97943.16;5061438;28;41379;-90
2023/11/09 12:51:41;;;;;;;1.10;1.00;;;;;;;14.52;60.25;97954.66;5061124;28;38963;-87
2023/11/09 12:54:13;;;;;;;0.73;0.67;;;;;;;14.44;59.79;97935.88;5060349;28;41642;-88
2023/11/09 12:56:45;;;;;;;1.60;1.00;;;;;;;14.41;59.38;97930.84;5077329;28;42944;-86
2023/11/09 12:59:24;;;;;;;1.30;1.20;;;;;;;14.50;58.58;97945.97;5078638;28;41463;-87
2023/11/09 13:01:55;;;;;;;1.60;1.10;;;;;;;14.19;58.44;97900.00;5060496;28;38836;-88
2023/11/09 13:04:28;;;;;;;2.70;0.90;;;;;;;14.48;58.67;97950.59;5078487;28;41058;-84
2023/11/09 13:07:15;;;;;;;2.43;1.00;;;;;;;14.24;58.68;97915.53;5061563;28;41912;-86
2023/11/09 13:09:46;;;;;;;3.00;1.33;;;;;;;14.16;58.98;97899.44;5077597;28;42715;-86
2023/11/09 13:12:27;;;;;;;1.37;1.00;;;;;;;14.46;58.89;97943.75;5082214;28;39148;-88
2023/11/09 13:18:08;;;;;;;2.23;1.43;;;;;;;14.17;59.15;97901.13;5133619;27;20514;-88
2023/11/09 13:20:37;;;;;;;3.80;1.20;;;;;;;14.26;59.05;97917.06;5095406;27;39481;-86
2023/11/09 13:23:11;;;;;;;0.80;0.70;;;;;;;14.28;58.75;97935.59;5112297;27;40913;-86
2023/11/09 13:25:41;;;;;;;1.93;0.80;;;;;;;14.21;59.40;97934.47;5094895;27;42115;-82
2023/11/09 13:28:14;;;;;;;0.83;0.80;;;;;;;14.15;60.27;97919.06;5112346;27;42493;-91
2023/11/09 13:31:03;;;;;;;1.27;0.93;;;;;;;14.17;59.56;97927.75;5112549;27;40018;-90
2023/11/09 13:33:45;;;;;;;1.00;0.80;;;;;;;13.98;60.26;97894.81;5111929;27;42006;-88
2023/11/09 13:36:53;;;;;;;1.93;1.17;;;;;;;14.11;60.57;97917.63;5093389;27;41964;-87
2023/11/09 13:39:50;;;;;;;1.10;0.87;;;;;;;13.88;60.21;97882.47;5110848;27;41501;-85
2023/11/09 13:49:43;;;;;;;1.23;1.03;;;;;;;13.95;61.13;97895.13;5162127;27;44360;-83
2023/11/09 13:52:38;;;;;;;1.07;1.00;;;;;;;13.96;61.02;97903.94;5134894;27;40924;-88
2023/11/09 13:55:22;;;;;;;1.00;0.90;;;;;;;13.90;60.98;97905.31;5134311;27;38882;-89
2023/11/09 13:57:49;;;;;;;1.33;0.83;;;;;;;13.90;61.84;97894.69;5117304;27;40826;-88
2023/11/09 14:00:33;;;;;;;0.90;0.87;;;;;;;13.83;61.97;97882.94;5116816;27;42244;-88
2023/11/09 14:03:01;;;;;;;1.23;0.90;;;;;;;13.82;62.04;97881.25;5151934;27;42155;-89
2023/11/09 14:05:30;;;;;;;2.07;0.90;;;;;;;13.52;61.82;97831.66;5134947;27;39154;-86
2023/11/09 14:08:02;;;;;;;1.10;1.00;;;;;;;13.70;62.22;97866.38;5135064;27;40913;-86
2023/11/09 14:10:31;;;;;;;1.47;1.13;;;;;;;13.83;62.31;97877.59;5117568;27;41593;-88
2023/11/09 14:16:15;;;;;;;1.20;0.93;;;;;;;13.77;63.00;97872.81;5135385;27;39316;-87
2023/11/09 14:19:20;;;;;;;2.30;0.80;;;;;;;13.78;63.30;97868.34;5135521;27;42352;-90
2023/11/09 14:21:49;;;;;;;0.90;0.80;;;;;;;13.75;63.26;97869.44;5117786;27;42634;-85
2023/11/09 14:24:22;;;;;;;1.40;0.87;;;;;;;13.70;64.27;97863.72;5135401;27;42080;-90
2023/11/09 14:26:54;;;;;;;1.23;0.80;;;;;;;13.54;64.70;97826.19;5133088;27;41255;-88
2023/11/09 14:29:30;;;;;;;0.70;0.67;;;;;;;13.58;65.37;97839.09;5102930;27;41523;-87
2023/11/09 14:31:58;;;;;;;1.17;0.90;;;;;;;13.22;65.40;97786.56;5120455;27;41734;-88
2023/11/09 14:34:27;;;;;;;1.17;0.90;;;;;;;13.54;65.46;97844.81;5120581;27;41183;-87
2023/11/09 14:37:19;;;;;;;1.20;0.90;;;;;;;13.30;66.44;97811.47;5119674;27;40439;-85
2023/11/09 14:42:28;;;;;;;1.07;0.93;;;;;;;13.41;67.25;97844.25;5119020;27;41915;-84
2023/11/09 14:47:41;;;;;;;2.20;1.00;;;;;;;13.47;67.73;97841.03;5118879;27;39183;-89
2023/11/09 15:01:40;;;;;;;1.10;0.90;;;;;;;13.12;69.87;97805.13;5094002;28;38704;-86
2023/11/09 15:04:09;;;;;;;1.30;0.70;;;;;;;13.24;69.89;97825.31;5078673;28;43180;-87
2023/11/09 15:07:00;;;;;;;2.33;0.73;;;;;;;13.22;70.09;97823.78;5077986;28;43332;-87
2023/11/09 15:22:28;;;;;;;1.27;0.90;;;;;;;12.93;72.64;97815.72;5135152;27;43354;-86
